logo
Search for airport 
image banner adimage banner adimage banner ad
image banner ad

EHDEV - De Voorst

Located in , Netherlands

ICAO - , IATA -

Data provided by Airmate  

General information

Coordinates: N52°41'5" E5°54'41"
Elevation is 4 feet MSL.
 
View others Airports in Gelderland

Operational data

Special qualification required
Current time UTC:
Current local time:
Weather at : EHLE - Lelystad/Lelystad ( 37 km )
METAR: EHLE 222225Z AUTO 19003KT 9999 DZ FEW015CB 12/11 Q1005
TAF: TAF EHLE 221713Z 2218/2324 22014KT 9999 FEW030 BKN040 TEMPO 2218/2224 6000 SHRA FEW020CB BKN022 PROB40 TEMPO 2220/2223 4000 SHRA TSRA SCT020CB BKN022 TEMPO 2300/2315 6000 SHRA FEW020CB SCT022 PROB30 2300/2308 4000 BR BKN006 BECMG 2308/2311 26012KT BECMG 2312/2315 30010KT BECMG 2315/2318 30005KT BECMG 2321/2324 18006KT 5000 BR MIFG
View NOTAMs / SUP AIP / TFR affecting this airport [VIEW]
Communications frequencies: [VIEW]

Runways:

RWY identifierQFULength (ft)Width (ft)SurfaceLDA (ft)
0868°3281164GRASS
26248°3281164GRASS

Airport contact information

Address: Netherlands

Satellite view of EHDEV